createdAt,value
2023-05-02T00:01:11.605Z,100.00
2023-05-02T00:03:58.035Z,100.00
2023-05-02T00:06:46.470Z,100.00
2023-05-02T00:09:33.133Z,100.00
2023-05-02T00:12:20.114Z,100.00
2023-05-02T00:15:07.507Z,100.00
2023-05-02T00:17:57.010Z,100.00
2023-05-02T00:20:43.761Z,100.00
2023-05-02T00:23:30.421Z,100.00
2023-05-02T00:26:17.008Z,100.00
2023-05-02T00:29:03.676Z,100.00
2023-05-02T00:31:50.055Z,100.00
2023-05-02T00:34:36.737Z,100.00
2023-05-02T00:37:27.472Z,100.00
2023-05-02T00:40:16.958Z,100.00
2023-05-02T00:43:03.337Z,100.00
2023-05-02T00:45:52.557Z,100.00
2023-05-02T00:48:40.051Z,100.00
2023-05-02T00:51:27.335Z,100.00
2023-05-02T00:54:14.577Z,100.00
2023-05-02T00:57:02.423Z,100.00
2023-05-02T00:59:52.847Z,100.00
2023-05-02T01:02:51.314Z,100.00
2023-05-02T01:06:03.931Z,100.00
2023-05-02T01:09:13.175Z,100.00
2023-05-02T01:12:31.268Z,100.00
2023-05-02T01:15:22.319Z,100.00
2023-05-02T01:18:14.713Z,100.00
2023-05-02T01:21:06.653Z,100.00
2023-05-02T01:24:05.499Z,100.00
2023-05-02T01:27:07.584Z,100.00
2023-05-02T01:32:59.192Z,100.00
2023-05-02T01:35:49.636Z,100.00
2023-05-02T01:38:37.541Z,100.00
2023-05-02T01:41:29.029Z,100.00
2023-05-02T01:44:24.186Z,100.00
2023-05-02T01:47:12.200Z,100.00
2023-05-02T01:50:03.024Z,100.00
2023-05-02T01:52:55.328Z,100.00
2023-05-02T01:55:44.619Z,100.00
2023-05-02T01:58:35.984Z,100.00
2023-05-02T02:01:27.411Z,100.00
2023-05-02T02:04:16.731Z,100.00
2023-05-02T02:07:10.927Z,100.00
2023-05-02T02:09:57.641Z,100.00
2023-05-02T02:13:04.675Z,100.00
2023-05-02T02:15:55.483Z,100.00
2023-05-02T02:18:45.766Z,100.00
2023-05-02T02:21:34.362Z,100.00
2023-05-02T02:24:22.880Z,100.00
2023-05-02T02:27:09.312Z,100.00
2023-05-02T02:29:55.560Z,100.00
2023-05-02T02:32:42.101Z,100.00
2023-05-02T02:35:34.085Z,100.00
2023-05-02T02:38:50.733Z,100.00
2023-05-02T02:41:43.419Z,100.00
2023-05-02T02:44:54.218Z,100.00
2023-05-02T02:48:19.225Z,100.00
2023-05-02T02:51:19.727Z,100.00
2023-05-02T02:54:27.022Z,100.00
2023-05-02T02:57:26.738Z,100.00
2023-05-02T03:00:22.224Z,100.00
2023-05-02T03:03:10.786Z,100.00
2023-05-02T03:05:57.528Z,100.00
2023-05-02T03:08:44.904Z,100.00
2023-05-02T03:11:36.798Z,100.00
2023-05-02T03:14:23.606Z,100.00
2023-05-02T03:17:10.661Z,100.00
2023-05-02T03:19:57.641Z,100.00
2023-05-02T03:22:44.366Z,100.00
2023-05-02T03:25:32.148Z,100.00
2023-05-02T03:28:18.759Z,100.00
2023-05-02T03:31:07.934Z,100.00
2023-05-02T03:33:58.549Z,100.00
2023-05-02T03:36:45.454Z,100.00
2023-05-02T03:39:31.844Z,100.00
2023-05-02T03:42:18.182Z,100.00
2023-05-02T03:45:05.266Z,100.00
2023-05-02T03:47:51.804Z,100.00
2023-05-02T03:50:38.140Z,100.00
2023-05-02T03:53:25.372Z,100.00
2023-05-02T03:56:20.255Z,100.00
2023-05-02T03:59:14.963Z,100.00
2023-05-02T04:02:01.525Z,100.00
2023-05-02T04:04:57.211Z,100.00
2023-05-02T04:07:43.869Z,100.00
2023-05-02T04:10:30.744Z,100.00
2023-05-02T04:13:20.334Z,100.00
2023-05-02T04:16:09.413Z,100.00
2023-05-02T04:18:57.327Z,100.00
2023-05-02T04:21:45.575Z,100.00
2023-05-02T04:24:33.367Z,100.00
2023-05-02T04:27:19.910Z,100.00
2023-05-02T04:30:07.358Z,100.00
2023-05-02T04:32:54.084Z,100.00
2023-05-02T04:35:41.258Z,100.00
2023-05-02T04:38:30.259Z,100.00
2023-05-02T04:41:17.480Z,100.00
2023-05-02T04:44:10.632Z,100.00
2023-05-02T04:46:58.351Z,100.00
2023-05-02T04:49:44.531Z,100.00
2023-05-02T04:52:31.337Z,100.00
2023-05-02T04:55:17.814Z,100.00
2023-05-02T04:58:05.009Z,100.00
2023-05-02T05:00:52.683Z,100.00
2023-05-02T05:03:39.025Z,100.00
2023-05-02T05:06:27.149Z,100.00
2023-05-02T05:09:15.102Z,100.00
2023-05-02T05:12:01.980Z,100.00
2023-05-02T05:14:50.663Z,100.00
2023-05-02T05:17:38.171Z,100.00
2023-05-02T05:20:24.923Z,100.00
2023-05-02T05:23:15.192Z,100.00
2023-05-02T05:26:17.494Z,100.00
2023-05-02T05:29:08.296Z,100.00
2023-05-02T05:31:59.861Z,100.00
2023-05-02T05:34:47.105Z,100.00
2023-05-02T05:37:33.730Z,100.00
2023-05-02T05:40:21.517Z,100.00
2023-05-02T05:43:13.475Z,100.00
2023-05-02T05:46:00.371Z,100.00
2023-05-02T05:48:48.001Z,100.00
2023-05-02T05:51:35.551Z,100.00
2023-05-02T05:54:22.244Z,100.00
2023-05-02T05:57:08.496Z,100.00
2023-05-02T05:59:57.329Z,100.00
2023-05-02T06:02:43.864Z,100.00
2023-05-02T06:05:37.132Z,100.00
2023-05-02T06:08:23.717Z,100.00
2023-05-02T06:11:11.590Z,100.00
2023-05-02T06:13:57.975Z,100.00
2023-05-02T06:16:45.047Z,100.00
2023-05-02T06:19:32.012Z,100.00
2023-05-02T06:22:18.429Z,100.00
2023-05-02T06:25:05.310Z,100.00
2023-05-02T06:27:51.804Z,100.00
2023-05-02T06:30:38.245Z,100.00
2023-05-02T06:33:24.845Z,100.00
2023-05-02T06:36:11.039Z,100.00
2023-05-02T06:38:57.634Z,100.00
2023-05-02T06:41:44.318Z,100.00
2023-05-02T06:44:35.616Z,100.00
2023-05-02T06:47:24.296Z,100.00
2023-05-02T06:50:11.566Z,100.00
2023-05-02T06:52:58.109Z,100.00
2023-05-02T06:55:46.310Z,100.00
2023-05-02T06:58:32.842Z,100.00
2023-05-02T07:01:19.154Z,100.00
2023-05-02T07:04:06.194Z,100.00
2023-05-02T07:06:52.663Z,100.00
2023-05-02T07:09:39.259Z,100.00
2023-05-02T07:12:26.315Z,100.00
2023-05-02T07:15:13.881Z,100.00
2023-05-02T07:18:00.920Z,100.00
2023-05-02T07:20:47.659Z,100.00
2023-05-02T07:23:33.976Z,100.00
2023-05-02T07:26:21.110Z,100.00
2023-05-02T07:29:08.808Z,100.00
2023-05-02T07:31:55.077Z,100.00
2023-05-02T07:34:41.722Z,100.00
2023-05-02T07:37:34.658Z,99.57
2023-05-02T07:40:21.366Z,98.16
2023-05-02T07:43:09.813Z,98.12
2023-05-02T07:45:57.517Z,96.53
2023-05-02T07:48:44.900Z,96.43
2023-05-02T07:51:32.412Z,93.48
2023-05-02T07:54:23.163Z,92.69
2023-05-02T07:57:10.003Z,90.18
2023-05-02T08:00:00.007Z,93.77
2023-05-02T08:02:47.117Z,93.38
2023-05-02T08:05:33.622Z,93.89
2023-05-02T08:08:19.870Z,93.82
2023-05-02T08:11:06.924Z,93.16
2023-05-02T08:13:54.200Z,92.70
2023-05-02T08:16:40.891Z,92.50
2023-05-02T08:19:27.821Z,91.36
2023-05-02T08:22:13.887Z,90.19
2023-05-02T08:25:00.151Z,88.05
2023-05-02T08:27:46.843Z,90.91
2023-05-02T08:30:33.597Z,91.80
2023-05-02T08:33:20.164Z,89.59
2023-05-02T08:36:17.325Z,89.96
2023-05-02T08:39:03.881Z,89.26
2023-05-02T08:41:50.371Z,88.92
2023-05-02T08:44:37.414Z,91.09
2023-05-02T08:47:25.968Z,89.95
2023-05-02T08:50:12.818Z,91.07
2023-05-02T08:52:59.848Z,84.71
2023-05-02T08:55:48.680Z,89.67
2023-05-02T08:58:36.329Z,90.12
2023-05-02T09:01:24.229Z,88.40
2023-05-02T09:04:11.308Z,84.35
2023-05-02T09:06:57.943Z,83.19
2023-05-02T09:09:44.328Z,81.82
2023-05-02T09:12:30.690Z,78.89
2023-05-02T09:15:20.473Z,78.13
2023-05-02T09:18:07.289Z,79.36
2023-05-02T09:20:54.792Z,76.88
2023-05-02T09:23:46.132Z,69.93
2023-05-02T09:26:33.314Z,70.39
2023-05-02T09:29:20.741Z,72.81
2023-05-02T09:32:07.373Z,71.76
2023-05-02T09:35:06.767Z,76.62
2023-05-02T09:37:57.875Z,74.52
2023-05-02T09:40:57.566Z,69.99
2023-05-02T09:43:44.015Z,71.52
2023-05-02T09:46:40.599Z,70.75
2023-05-02T09:49:39.264Z,68.21
2023-05-02T09:52:25.792Z,68.56
2023-05-02T09:55:21.400Z,67.27
2023-05-02T09:58:19.850Z,65.93
2023-05-02T10:01:06.463Z,67.41
2023-05-02T10:03:53.766Z,65.19
2023-05-02T10:06:40.972Z,66.70
2023-05-02T10:09:28.253Z,64.21
2023-05-02T10:12:16.567Z,65.49
2023-05-02T10:15:04.513Z,62.41
2023-05-02T10:17:53.381Z,62.32
2023-05-02T10:20:47.831Z,62.78
2023-05-02T10:23:34.721Z,61.50
2023-05-02T10:26:23.336Z,61.45
2023-05-02T10:29:10.808Z,63.13
2023-05-02T10:31:58.660Z,64.59
2023-05-02T10:34:47.540Z,68.28
2023-05-02T10:37:37.593Z,61.27
2023-05-02T10:40:24.239Z,62.69
2023-05-02T10:43:16.134Z,58.73
2023-05-02T10:46:05.341Z,61.13
2023-05-02T10:49:08.590Z,62.77
2023-05-02T10:51:54.896Z,63.53
2023-05-02T10:54:41.264Z,64.41
2023-05-02T10:57:27.861Z,64.86
2023-05-02T11:00:25.515Z,63.76
2023-05-02T11:03:11.904Z,61.22
2023-05-02T11:06:06.717Z,59.04
2023-05-02T11:08:53.628Z,58.14
2023-05-02T11:11:42.009Z,55.88
2023-05-02T11:14:31.147Z,56.73
2023-05-02T11:17:18.450Z,55.22
2023-05-02T11:20:05.430Z,54.50
2023-05-02T11:22:52.067Z,55.54
2023-05-02T11:25:41.639Z,53.00
2023-05-02T11:28:36.927Z,52.23
2023-05-02T11:31:29.614Z,53.32
2023-05-02T11:34:16.250Z,55.80
2023-05-02T11:37:15.121Z,61.04
2023-05-02T11:40:14.569Z,60.97
2023-05-02T11:43:12.806Z,60.20
2023-05-02T11:46:00.395Z,59.55
2023-05-02T11:48:46.945Z,59.50
2023-05-02T11:51:35.552Z,60.16
2023-05-02T11:54:22.812Z,60.93
2023-05-02T11:57:09.492Z,57.62
2023-05-02T11:59:57.623Z,58.62
2023-05-02T12:02:46.053Z,57.27
2023-05-02T12:05:32.733Z,55.42
2023-05-02T12:08:29.915Z,54.76
2023-05-02T12:11:17.191Z,54.36
2023-05-02T12:14:04.628Z,55.03
2023-05-02T12:16:50.859Z,54.39
2023-05-02T12:19:39.046Z,52.96
2023-05-02T12:22:26.336Z,53.28
2023-05-02T12:25:13.303Z,49.33
2023-05-02T12:28:03.639Z,50.83
2023-05-02T12:30:51.187Z,50.17
2023-05-02T12:33:44.246Z,51.33
2023-05-02T12:36:30.747Z,50.84
2023-05-02T12:39:16.924Z,52.62
2023-05-02T12:42:10.833Z,51.68
2023-05-02T12:44:57.334Z,51.68
2023-05-02T12:47:46.611Z,51.93
2023-05-02T12:50:39.413Z,52.17
2023-05-02T12:53:43.677Z,48.32
2023-05-02T12:56:32.800Z,49.75
2023-05-02T12:59:26.624Z,49.33
2023-05-02T13:02:13.203Z,50.11
2023-05-02T13:04:59.789Z,47.71
2023-05-02T13:07:46.782Z,47.03
2023-05-02T13:10:33.223Z,48.18
2023-05-02T13:13:19.663Z,48.11
2023-05-02T13:16:06.835Z,49.87
2023-05-02T13:18:53.457Z,51.24
2023-05-02T13:21:39.961Z,50.71
2023-05-02T13:24:27.776Z,49.96
2023-05-02T13:27:14.256Z,47.35
2023-05-02T13:30:06.656Z,47.43
2023-05-02T13:32:57.391Z,45.86
2023-05-02T13:35:43.605Z,48.78
2023-05-02T13:38:30.624Z,48.50
2023-05-02T13:41:20.160Z,48.49
2023-05-02T13:44:06.635Z,50.57
2023-05-02T13:46:52.868Z,48.84
2023-05-02T13:49:39.562Z,49.68
2023-05-02T13:52:26.032Z,51.46
2023-05-02T13:55:12.663Z,52.57
2023-05-02T13:57:59.401Z,52.24
2023-05-02T14:00:46.010Z,52.78
2023-05-02T14:03:32.487Z,53.54
2023-05-02T14:06:19.167Z,51.98
2023-05-02T14:09:07.185Z,52.80
2023-05-02T14:11:53.668Z,53.17
2023-05-02T14:14:40.653Z,51.55
2023-05-02T14:17:27.296Z,51.00
2023-05-02T14:20:13.842Z,50.72
2023-05-02T14:23:00.140Z,50.26
2023-05-02T14:25:46.488Z,50.72
2023-05-02T14:28:32.791Z,50.43
2023-05-02T14:31:19.419Z,49.05
2023-05-02T14:34:08.721Z,49.58
2023-05-02T14:36:55.956Z,49.17
2023-05-02T14:39:44.634Z,48.55
2023-05-02T14:42:31.157Z,47.93
2023-05-02T14:45:17.509Z,49.57
2023-05-02T14:48:03.969Z,48.79
2023-05-02T14:50:50.598Z,45.82
2023-05-02T14:53:36.785Z,45.31
2023-05-02T14:56:23.319Z,45.61
2023-05-02T14:59:10.085Z,45.60
2023-05-02T15:01:56.958Z,46.14
2023-05-02T15:04:43.534Z,45.94
2023-05-02T15:07:30.094Z,44.81
2023-05-02T15:10:16.362Z,46.23
2023-05-02T15:13:03.888Z,45.22
2023-05-02T15:15:50.563Z,45.46
2023-05-02T15:18:36.805Z,46.45
2023-05-02T15:21:23.249Z,46.19
2023-05-02T15:24:10.522Z,47.44
2023-05-02T15:26:56.867Z,47.25
2023-05-02T15:29:43.231Z,47.60
2023-05-02T15:32:29.882Z,46.80
2023-05-02T15:35:16.075Z,47.20
2023-05-02T15:38:02.402Z,45.93
2023-05-02T15:40:59.750Z,46.46
2023-05-02T15:43:46.279Z,46.59
2023-05-02T15:46:32.891Z,44.35
2023-05-02T15:49:19.496Z,45.19
2023-05-02T15:52:05.825Z,46.45
2023-05-02T15:54:52.093Z,44.67
2023-05-02T15:57:40.562Z,44.85
2023-05-02T16:00:26.880Z,45.10
2023-05-02T16:03:13.885Z,45.28
2023-05-02T16:06:01.030Z,46.12
2023-05-02T16:08:47.369Z,44.44
2023-05-02T16:11:34.307Z,44.52
2023-05-02T16:14:24.023Z,44.56
2023-05-02T16:17:10.749Z,43.85
2023-05-02T16:19:58.183Z,41.77
2023-05-02T16:22:48.458Z,41.99
2023-05-02T16:25:34.874Z,44.79
2023-05-02T16:28:21.160Z,43.94
2023-05-02T16:31:10.935Z,44.74
2023-05-02T16:33:58.767Z,45.27
2023-05-02T16:36:46.704Z,45.13
2023-05-02T16:39:34.067Z,45.60
2023-05-02T16:42:20.695Z,45.65
2023-05-02T16:45:07.638Z,44.39
2023-05-02T16:47:53.884Z,44.43
2023-05-02T16:50:40.576Z,43.09
2023-05-02T16:53:27.581Z,42.77
2023-05-02T16:56:13.964Z,42.28
2023-05-02T16:59:00.669Z,42.58
2023-05-02T17:01:47.160Z,44.14
2023-05-02T17:04:33.771Z,45.12
2023-05-02T17:07:20.385Z,45.63
2023-05-02T17:10:07.466Z,46.80
2023-05-02T17:12:55.954Z,48.03
2023-05-02T17:15:42.740Z,49.52
2023-05-02T17:18:29.116Z,50.49
2023-05-02T17:21:15.471Z,51.85
2023-05-02T17:24:01.965Z,51.87
2023-05-02T17:26:49.097Z,52.24
2023-05-02T17:29:35.539Z,52.74
2023-05-02T17:32:21.834Z,53.12
2023-05-02T17:35:08.646Z,52.77
2023-05-02T17:37:55.382Z,52.79
2023-05-02T17:40:41.542Z,51.54
2023-05-02T17:43:27.818Z,48.65
2023-05-02T17:46:15.356Z,49.14
2023-05-02T17:49:01.884Z,50.50
2023-05-02T17:51:48.136Z,50.56
2023-05-02T17:54:34.406Z,51.68
2023-05-02T17:57:21.384Z,52.39
2023-05-02T18:00:08.556Z,52.40
2023-05-02T18:02:54.776Z,53.36
2023-05-02T18:05:43.942Z,54.15
2023-05-02T18:08:33.485Z,55.52
2023-05-02T18:11:20.930Z,55.11
2023-05-02T18:14:07.298Z,55.61
2023-05-02T18:16:53.541Z,55.62
2023-05-02T18:19:40.115Z,56.54
2023-05-02T18:22:27.332Z,56.32
2023-05-02T18:25:13.638Z,57.01
2023-05-02T18:28:00.329Z,56.82
2023-05-02T18:30:46.656Z,57.37
2023-05-02T18:33:33.039Z,58.89
2023-05-02T18:36:25.092Z,61.63
2023-05-02T18:39:11.651Z,65.18
2023-05-02T18:41:58.522Z,67.11
2023-05-02T18:44:44.735Z,73.08
2023-05-02T18:47:31.575Z,75.84
2023-05-02T18:50:18.286Z,75.00
2023-05-02T18:53:04.518Z,78.05
2023-05-02T18:55:51.274Z,82.27
2023-05-02T18:58:37.605Z,81.05
2023-05-02T19:01:24.570Z,84.28
2023-05-02T19:04:10.866Z,82.59
2023-05-02T19:06:57.162Z,79.34
2023-05-02T19:09:43.881Z,75.67
2023-05-02T19:12:30.928Z,79.97
2023-05-02T19:15:17.595Z,81.62
2023-05-02T19:18:03.977Z,85.06
2023-05-02T19:20:50.629Z,86.29
2023-05-02T19:23:37.581Z,86.04
2023-05-02T19:26:24.216Z,91.45
2023-05-02T19:29:10.718Z,95.87
2023-05-02T19:31:56.962Z,96.69
2023-05-02T19:34:43.509Z,100.00
2023-05-02T19:37:30.145Z,100.00
2023-05-02T19:40:16.769Z,100.00
2023-05-02T19:43:03.358Z,100.00
2023-05-02T19:45:50.166Z,100.00
2023-05-02T19:48:37.124Z,100.00
2023-05-02T19:51:25.725Z,100.00
2023-05-02T19:54:12.690Z,100.00
2023-05-02T19:56:59.352Z,100.00
2023-05-02T19:59:45.406Z,100.00
2023-05-02T20:02:33.658Z,100.00
2023-05-02T20:05:20.275Z,100.00
2023-05-02T20:08:06.394Z,100.00
2023-05-02T20:10:53.832Z,100.00
2023-05-02T20:13:40.456Z,100.00
2023-05-02T20:16:27.354Z,100.00
2023-05-02T20:19:14.035Z,100.00
2023-05-02T20:22:00.331Z,100.00
2023-05-02T20:24:46.534Z,100.00
2023-05-02T20:27:32.827Z,100.00
2023-05-02T20:30:19.861Z,100.00
2023-05-02T20:33:15.377Z,100.00
2023-05-02T20:36:03.052Z,100.00
2023-05-02T20:38:49.173Z,100.00
2023-05-02T20:41:36.419Z,100.00
2023-05-02T20:44:22.806Z,100.00
2023-05-02T20:47:09.231Z,100.00
2023-05-02T20:49:56.734Z,100.00
2023-05-02T20:52:43.301Z,100.00
2023-05-02T20:55:29.852Z,100.00
2023-05-02T20:58:16.416Z,100.00
2023-05-02T21:01:02.802Z,100.00
2023-05-02T21:03:49.364Z,100.00
2023-05-02T21:06:35.960Z,100.00
2023-05-02T21:09:23.287Z,100.00
2023-05-02T21:12:09.841Z,100.00
2023-05-02T21:14:56.107Z,100.00
2023-05-02T21:17:42.557Z,100.00
2023-05-02T21:20:29.050Z,100.00
2023-05-02T21:23:15.693Z,100.00
2023-05-02T21:26:02.023Z,100.00
2023-05-02T21:28:48.158Z,100.00
2023-05-02T21:31:34.441Z,100.00
2023-05-02T21:34:20.944Z,100.00
2023-05-02T21:37:07.367Z,100.00
2023-05-02T21:39:53.678Z,100.00
2023-05-02T21:42:40.020Z,100.00
2023-05-02T21:45:26.729Z,100.00
2023-05-02T21:48:14.158Z,100.00
2023-05-02T21:51:00.513Z,100.00
2023-05-02T21:53:46.752Z,100.00
2023-05-02T21:56:33.258Z,100.00
2023-05-02T21:59:19.386Z,100.00
2023-05-02T22:02:08.782Z,100.00
2023-05-02T22:04:59.656Z,100.00
2023-05-02T22:07:49.082Z,100.00
2023-05-02T22:10:38.592Z,100.00
2023-05-02T22:13:25.366Z,100.00
2023-05-02T22:16:11.919Z,100.00
2023-05-02T22:18:58.358Z,100.00
2023-05-02T22:21:44.949Z,100.00
2023-05-02T22:24:34.710Z,100.00
2023-05-02T22:27:21.068Z,100.00
2023-05-02T22:30:09.482Z,100.00
2023-05-02T22:32:56.134Z,100.00
2023-05-02T22:35:42.612Z,100.00
2023-05-02T22:38:31.105Z,100.00
2023-05-02T22:41:17.377Z,100.00
2023-05-02T22:44:03.822Z,100.00
2023-05-02T22:46:53.478Z,100.00
2023-05-02T22:49:44.578Z,100.00
2023-05-02T22:52:31.438Z,100.00
2023-05-02T22:55:17.827Z,100.00
2023-05-02T22:58:07.339Z,100.00
2023-05-02T23:00:56.374Z,100.00
2023-05-02T23:03:42.657Z,100.00
2023-05-02T23:06:29.228Z,100.00
2023-05-02T23:09:18.718Z,100.00
2023-05-02T23:12:05.643Z,100.00
2023-05-02T23:14:51.872Z,100.00
2023-05-02T23:17:40.083Z,100.00
2023-05-02T23:20:31.028Z,100.00
2023-05-02T23:23:17.489Z,100.00
2023-05-02T23:26:04.049Z,100.00
2023-05-02T23:28:50.663Z,100.00
2023-05-02T23:31:37.132Z,100.00
2023-05-02T23:34:23.979Z,100.00
2023-05-02T23:37:11.469Z,100.00
2023-05-02T23:39:58.516Z,100.00
2023-05-02T23:42:45.830Z,100.00
2023-05-02T23:45:35.136Z,100.00
2023-05-02T23:48:21.646Z,100.00
2023-05-02T23:51:08.034Z,100.00
2023-05-02T23:53:54.902Z,100.00
2023-05-02T23:56:41.523Z,100.00
2023-05-02T23:59:28.031Z,100.00
